Time;durP1;ratioP1;P1;durP2;ratioP2;P2;SDS_P1;SDS_P2;PMS_P1;PMS_P2;Temp;Humidity;BMP_temperature;BMP_pressure;BME280_temperature;BME280_humidity;BME280_pressure;Samples;Min_cycle;Max_cycle;Signal;HPM_P1;HPM_P2
2021/05/15 00:00:09;;;;;;;38.40;7.30;;;;;;;;;;5071027;28;20028;-67
2021/05/15 00:02:34;;;;;;;30.77;7.23;;;;;;;;;;5070738;28;20016;-68
2021/05/15 00:04:59;;;;;;;32.40;7.20;;;;;;;;;;5082105;28;20516;-67
2021/05/15 00:07:25;;;;;;;26.13;6.57;;;;;;;;;;5070930;28;20024;-67
2021/05/15 00:09:50;;;;;;;32.27;7.27;;;;;;;;;;5052820;28;20021;-67
2021/05/15 00:12:15;;;;;;;35.40;8.33;;;;;;;;;;5071653;28;20013;-67
2021/05/15 00:14:41;;;;;;;35.27;8.07;;;;;;;;;;5071265;28;20433;-67
2021/05/15 00:17:06;;;;;;;32.63;7.87;;;;;;;;;;5071773;28;20506;-67
2021/05/15 00:19:31;;;;;;;36.67;7.67;;;;;;;;;;5071292;28;20032;-67
2021/05/15 00:21:57;;;;;;;34.33;8.13;;;;;;;;;;5055432;28;20027;-67
2021/05/15 00:24:22;;;;;;;39.60;8.40;;;;;;;;;;5070456;28;20013;-67
2021/05/15 00:26:47;;;;;;;34.40;8.60;;;;;;;;;;5068523;28;20024;-67
2021/05/15 00:29:13;;;;;;;39.83;8.83;;;;;;;;;;5071932;28;20043;-67
2021/05/15 00:31:38;;;;;;;43.13;9.30;;;;;;;;;;5070571;28;20099;-67
2021/05/15 00:34:04;;;;;;;32.60;7.70;;;;;;;;;;5066683;28;20094;-67
2021/05/15 00:36:29;;;;;;;34.10;7.93;;;;;;;;;;5068006;28;20392;-67
2021/05/15 00:38:54;;;;;;;36.57;9.20;;;;;;;;;;5039874;28;20032;-67
2021/05/15 00:41:19;;;;;;;40.23;8.67;;;;;;;;;;5060487;28;20738;-67
2021/05/15 00:46:31;;;;;;;43.17;8.63;;;;;;;;;;5071337;28;20031;-67
2021/05/15 00:48:57;;;;;;;53.80;9.00;;;;;;;;;;5068955;28;20267;-67
2021/05/15 00:51:22;;;;;;;45.13;8.37;;;;;;;;;;5064425;28;20367;-67
2021/05/15 00:53:48;;;;;;;37.23;9.13;;;;;;;;;;5069254;28;20044;-67
2021/05/15 00:56:13;;;;;;;48.47;9.10;;;;;;;;;;5051555;28;20025;-67
2021/05/15 00:58:39;;;;;;;40.63;9.20;;;;;;;;;;5074550;28;20485;-67
2021/05/15 01:01:05;;;;;;;47.47;8.83;;;;;;;;;;5067960;28;20028;-67
2021/05/15 01:03:31;;;;;;;55.73;10.07;;;;;;;;;;5079461;22;20131;-66
2021/05/15 01:05:56;;;;;;;56.10;10.07;;;;;;;;;;5069321;28;20040;-66
2021/05/15 01:08:22;;;;;;;53.97;9.70;;;;;;;;;;5070743;28;20036;-66
2021/05/15 01:10:47;;;;;;;43.87;9.73;;;;;;;;;;5068018;28;20468;-66
2021/05/15 01:13:13;;;;;;;51.57;9.60;;;;;;;;;;5068458;28;20036;-66
2021/05/15 01:15:39;;;;;;;45.47;9.50;;;;;;;;;;5067863;28;20391;-66
2021/05/15 01:18:04;;;;;;;54.50;9.77;;;;;;;;;;5067431;28;20377;-66
2021/05/15 01:20:32;;;;;;;40.10;8.87;;;;;;;;;;5067989;28;21559;-66
2021/05/15 01:22:58;;;;;;;43.13;8.63;;;;;;;;;;5067825;28;20443;-66
2021/05/15 01:25:23;;;;;;;47.37;9.87;;;;;;;;;;5069051;28;20334;-66
2021/05/15 01:27:49;;;;;;;52.23;9.23;;;;;;;;;;5068748;28;20033;-66
2021/05/15 01:30:16;;;;;;;50.40;9.70;;;;;;;;;;5069096;28;20075;-66
2021/05/15 01:32:42;;;;;;;50.83;9.67;;;;;;;;;;5068663;28;20024;-66
2021/05/15 01:35:08;;;;;;;47.50;9.03;;;;;;;;;;5068339;28;20283;-66
2021/05/15 01:37:35;;;;;;;60.23;9.83;;;;;;;;;;5069062;28;20841;-66
2021/05/15 01:40:01;;;;;;;50.17;9.67;;;;;;;;;;5050106;28;20039;-66
2021/05/15 01:42:26;;;;;;;58.47;10.73;;;;;;;;;;5069900;28;20390;-66
2021/05/15 01:44:51;;;;;;;56.63;10.53;;;;;;;;;;5068470;28;20017;-66
2021/05/15 01:47:17;;;;;;;57.00;10.30;;;;;;;;;;5051012;28;20380;-66
2021/05/15 01:49:42;;;;;;;56.20;10.20;;;;;;;;;;5068298;28;20068;-66
2021/05/15 01:52:07;;;;;;;49.83;9.97;;;;;;;;;;5050314;28;20439;-66
2021/05/15 01:54:33;;;;;;;68.83;10.80;;;;;;;;;;5068689;28;20098;-66
2021/05/15 01:56:58;;;;;;;51.23;10.63;;;;;;;;;;5067204;28;20032;-66
2021/05/15 01:59:24;;;;;;;45.07;10.07;;;;;;;;;;5068368;28;20465;-66
2021/05/15 02:01:49;;;;;;;55.27;10.20;;;;;;;;;;5049859;28;20031;-66
2021/05/15 02:04:14;;;;;;;58.87;10.77;;;;;;;;;;5068335;28;20029;-66
2021/05/15 02:06:40;;;;;;;62.63;11.30;;;;;;;;;;5055926;28;20569;-66
2021/05/15 02:09:05;;;;;;;53.43;10.37;;;;;;;;;;5068536;28;20036;-66
2021/05/15 02:11:30;;;;;;;66.20;11.30;;;;;;;;;;5067000;28;20040;-66
2021/05/15 02:13:56;;;;;;;59.97;10.83;;;;;;;;;;5069245;28;20032;-66
2021/05/15 02:16:21;;;;;;;55.23;10.27;;;;;;;;;;5067494;28;20480;-66
2021/05/15 02:18:46;;;;;;;48.57;8.70;;;;;;;;;;5069194;28;20489;-66
2021/05/15 02:21:12;;;;;;;50.30;9.20;;;;;;;;;;5066161;28;20477;-66
2021/05/15 02:23:38;;;;;;;40.40;7.83;;;;;;;;;;5069375;28;20095;-66
2021/05/15 02:26:03;;;;;;;36.63;7.27;;;;;;;;;;5066486;28;20059;-66
2021/05/15 02:28:29;;;;;;;47.23;10.07;;;;;;;;;;5069157;28;20460;-66
2021/05/15 02:30:54;;;;;;;36.57;7.47;;;;;;;;;;5068054;28;20107;-66
2021/05/15 02:33:19;;;;;;;37.50;7.37;;;;;;;;;;5068079;28;21610;-66
2021/05/15 02:35:46;;;;;;;52.60;9.80;;;;;;;;;;5066538;28;20032;-66
2021/05/15 02:38:12;;;;;;;45.70;9.10;;;;;;;;;;5050013;28;20039;-66
2021/05/15 02:40:38;;;;;;;49.30;9.70;;;;;;;;;;5066948;28;20294;-66
2021/05/15 02:43:04;;;;;;;55.27;9.00;;;;;;;;;;5068429;28;20381;-66
2021/05/15 02:45:29;;;;;;;48.90;9.03;;;;;;;;;;5060831;28;20036;-66
2021/05/15 02:47:54;;;;;;;58.53;8.80;;;;;;;;;;5066468;28;20028;-66
2021/05/15 02:50:21;;;;;;;59.67;9.60;;;;;;;;;;5068643;28;20024;-66
2021/05/15 02:52:48;;;;;;;44.37;8.30;;;;;;;;;;5065210;28;20465;-66
2021/05/15 02:55:15;;;;;;;56.70;9.87;;;;;;;;;;5068075;28;20366;-66
2021/05/15 02:57:41;;;;;;;51.53;9.07;;;;;;;;;;5063855;28;20436;-66
2021/05/15 03:00:09;;;;;;;61.00;9.70;;;;;;;;;;5068554;28;20358;-66
2021/05/15 03:02:34;;;;;;;59.17;10.63;;;;;;;;;;5062978;28;20778;-65
2021/05/15 03:05:00;;;;;;;58.50;9.87;;;;;;;;;;5068189;28;20282;-66
2021/05/15 03:07:25;;;;;;;47.37;9.63;;;;;;;;;;5066951;28;20472;-66
2021/05/15 03:09:51;;;;;;;52.73;9.60;;;;;;;;;;5066785;28;20028;-66
2021/05/15 03:12:16;;;;;;;65.50;9.80;;;;;;;;;;5067628;28;20083;-66
2021/05/15 03:14:42;;;;;;;70.83;10.90;;;;;;;;;;5067510;28;20590;-66
2021/05/15 03:17:08;;;;;;;56.93;10.87;;;;;;;;;;5067900;28;20028;-66
2021/05/15 03:19:34;;;;;;;57.93;10.57;;;;;;;;;;5067006;28;20387;-66
2021/05/15 03:21:59;;;;;;;53.33;10.23;;;;;;;;;;5067866;28;20290;-66
2021/05/15 03:24:27;;;;;;;60.27;11.40;;;;;;;;;;5066994;28;20031;-66
2021/05/15 03:26:53;;;;;;;57.00;9.90;;;;;;;;;;5067057;28;20068;-66
2021/05/15 03:29:18;;;;;;;50.47;10.23;;;;;;;;;;5067026;28;20345;-66
2021/05/15 03:31:43;;;;;;;47.57;9.77;;;;;;;;;;5067955;28;20407;-66
2021/05/15 03:34:09;;;;;;;47.00;10.10;;;;;;;;;;5067700;28;20461;-66
2021/05/15 03:36:34;;;;;;;51.17;10.07;;;;;;;;;;5068156;28;20028;-66
2021/05/15 03:39:00;;;;;;;36.50;9.10;;;;;;;;;;5071289;28;20035;-66
2021/05/15 03:41:27;;;;;;;39.50;9.93;;;;;;;;;;5071076;28;20041;-66
2021/05/15 03:43:52;;;;;;;30.50;8.57;;;;;;;;;;5071839;28;20050;-66
2021/05/15 03:46:17;;;;;;;29.87;8.17;;;;;;;;;;5070846;28;20303;-66
2021/05/15 03:48:42;;;;;;;34.07;8.13;;;;;;;;;;5071018;28;20072;-66
2021/05/15 03:51:08;;;;;;;34.33;8.20;;;;;;;;;;5070739;28;20036;-66
2021/05/15 03:53:33;;;;;;;28.20;7.60;;;;;;;;;;5071325;28;20032;-66
2021/05/15 03:55:58;;;;;;;27.73;7.73;;;;;;;;;;5069357;28;20088;-66
2021/05/15 03:58:24;;;;;;;25.30;7.17;;;;;;;;;;5064248;28;20107;-66
2021/05/15 04:00:49;;;;;;;29.00;8.60;;;;;;;;;;5070447;28;20093;-66
2021/05/15 04:03:16;;;;;;;25.33;7.67;;;;;;;;;;5061071;28;20048;-66
2021/05/15 04:05:41;;;;;;;29.07;8.50;;;;;;;;;;5051916;28;20102;-66
2021/05/15 04:08:06;;;;;;;27.27;8.43;;;;;;;;;;5062796;28;20060;-66
2021/05/15 04:10:32;;;;;;;23.13;7.87;;;;;;;;;;5052157;28;20082;-66
2021/05/15 04:15:41;;;;;;;21.90;7.73;;;;;;;;;;5063612;28;20545;-66
2021/05/15 04:18:06;;;;;;;23.90;7.73;;;;;;;;;;5050523;28;20029;-66
2021/05/15 04:20:33;;;;;;;26.40;8.70;;;;;;;;;;5062920;28;20032;-66
2021/05/15 04:22:58;;;;;;;26.13;7.73;;;;;;;;;;5050822;28;20366;-66
2021/05/15 04:25:23;;;;;;;23.13;7.60;;;;;;;;;;5063317;28;20040;-66
2021/05/15 04:27:49;;;;;;;25.30;8.77;;;;;;;;;;5050275;28;20438;-66
2021/05/15 04:30:14;;;;;;;26.60;8.13;;;;;;;;;;5045739;28;20407;-66
2021/05/15 04:32:39;;;;;;;20.93;7.23;;;;;;;;;;5043902;28;20036;-66
2021/05/15 04:35:05;;;;;;;26.27;8.57;;;;;;;;;;5051435;28;20072;-66
2021/05/15 04:37:30;;;;;;;23.93;7.07;;;;;;;;;;5050127;28;20029;-66
2021/05/15 04:39:55;;;;;;;20.07;7.97;;;;;;;;;;5053870;28;20040;-66
2021/05/15 04:42:21;;;;;;;26.10;8.90;;;;;;;;;;5050470;28;20035;-66
2021/05/15 04:44:46;;;;;;;19.60;7.97;;;;;;;;;;5062534;28;20346;-66
2021/05/15 04:47:11;;;;;;;24.87;8.77;;;;;;;;;;5050306;28;20025;-66
2021/05/15 04:49:36;;;;;;;23.47;8.33;;;;;;;;;;5048978;28;20101;-66
2021/05/15 04:52:02;;;;;;;20.60;7.80;;;;;;;;;;5050052;28;20583;-66
2021/05/15 04:54:27;;;;;;;22.50;7.67;;;;;;;;;;5060977;28;20033;-66
2021/05/15 04:56:52;;;;;;;25.63;8.57;;;;;;;;;;5044650;28;20468;-66
2021/05/15 04:59:17;;;;;;;20.67;7.17;;;;;;;;;;5049734;28;20626;-66
2021/05/15 05:01:43;;;;;;;21.10;7.90;;;;;;;;;;5049750;28;20473;-66
2021/05/15 05:04:08;;;;;;;21.73;7.93;;;;;;;;;;5068117;28;20040;-66
2021/05/15 05:06:33;;;;;;;21.27;7.27;;;;;;;;;;5069603;28;20028;-66
2021/05/15 05:08:59;;;;;;;26.10;8.10;;;;;;;;;;5069573;28;20052;-66
2021/05/15 05:11:24;;;;;;;22.57;8.03;;;;;;;;;;5069442;28;20032;-66
2021/05/15 05:13:49;;;;;;;19.50;6.97;;;;;;;;;;5069547;28;20032;-66
2021/05/15 05:16:15;;;;;;;20.93;8.00;;;;;;;;;;5068403;28;20032;-66
2021/05/15 05:18:40;;;;;;;25.50;7.37;;;;;;;;;;5068528;28;20108;-66
2021/05/15 05:21:05;;;;;;;20.57;7.47;;;;;;;;;;5068806;28;20033;-66
2021/05/15 05:23:30;;;;;;;18.07;6.43;;;;;;;;;;5070387;28;20345;-66
2021/05/15 05:25:56;;;;;;;21.20;7.30;;;;;;;;;;5069127;28;20100;-66
2021/05/15 05:28:25;;;;;;;19.73;6.27;;;;;;;;;;5065263;28;20012;-66
2021/05/15 05:30:51;;;;;;;19.07;6.77;;;;;;;;;;5070051;28;20494;-66
2021/05/15 05:33:16;;;;;;;18.67;6.87;;;;;;;;;;5051042;28;20062;-66
2021/05/15 05:35:41;;;;;;;26.10;7.50;;;;;;;;;;5068819;28;20033;-66
2021/05/15 05:38:06;;;;;;;20.67;7.90;;;;;;;;;;5064926;28;20111;-64
2021/05/15 05:40:32;;;;;;;16.53;6.70;;;;;;;;;;5069955;28;20033;-64
2021/05/15 05:42:57;;;;;;;18.53;6.80;;;;;;;;;;5068460;28;20028;-66
2021/05/15 05:45:22;;;;;;;22.53;7.20;;;;;;;;;;5063148;28;20563;-66
2021/05/15 05:47:48;;;;;;;18.27;6.30;;;;;;;;;;5066642;28;20025;-66
2021/05/15 05:50:13;;;;;;;19.53;7.27;;;;;;;;;;5066584;28;20012;-66
2021/05/15 05:52:39;;;;;;;15.93;6.73;;;;;;;;;;5069039;28;20032;-66
2021/05/15 05:55:05;;;;;;;22.23;7.23;;;;;;;;;;5068225;28;20520;-66
2021/05/15 05:57:31;;;;;;;23.50;7.20;;;;;;;;;;5062764;28;20060;-66
2021/05/15 05:59:56;;;;;;;15.87;6.83;;;;;;;;;;5067364;28;20121;-66
2021/05/15 06:02:21;;;;;;;23.80;7.07;;;;;;;;;;5067935;28;20105;-66
2021/05/15 06:04:47;;;;;;;22.97;7.63;;;;;;;;;;5069149;28;20016;-66
2021/05/15 06:07:13;;;;;;;22.13;8.30;;;;;;;;;;5066952;28;20043;-66
2021/05/15 06:09:39;;;;;;;23.40;8.03;;;;;;;;;;5067678;28;20115;-66
2021/05/15 06:12:04;;;;;;;22.47;7.37;;;;;;;;;;5068170;28;20146;-66
2021/05/15 06:14:30;;;;;;;18.07;7.07;;;;;;;;;;5068726;28;20028;-67
2021/05/15 06:16:55;;;;;;;20.43;8.17;;;;;;;;;;5068969;28;20480;-66
2021/05/15 06:19:20;;;;;;;24.40;7.53;;;;;;;;;;5067934;28;20213;-67
2021/05/15 06:21:45;;;;;;;20.43;7.57;;;;;;;;;;5066271;28;20488;-67
2021/05/15 06:24:11;;;;;;;27.47;7.53;;;;;;;;;;5067847;28;20032;-67
2021/05/15 06:26:37;;;;;;;30.57;8.27;;;;;;;;;;5065826;28;20024;-66
2021/05/15 06:29:02;;;;;;;24.63;8.20;;;;;;;;;;5066149;28;20601;-66
2021/05/15 06:31:27;;;;;;;27.93;8.40;;;;;;;;;;5068906;28;20039;-66
2021/05/15 06:33:53;;;;;;;28.93;8.80;;;;;;;;;;5067098;28;20127;-66
2021/05/15 06:36:18;;;;;;;27.03;8.83;;;;;;;;;;5068105;28;20039;-66
2021/05/15 06:38:43;;;;;;;26.77;8.90;;;;;;;;;;5068305;28;20483;-66
2021/05/15 06:41:08;;;;;;;23.43;8.43;;;;;;;;;;5068501;28;20036;-66
2021/05/15 06:43:34;;;;;;;25.27;9.20;;;;;;;;;;5068060;28;20029;-66
2021/05/15 06:45:59;;;;;;;24.40;8.30;;;;;;;;;;5063974;28;20030;-66
2021/05/15 06:48:24;;;;;;;31.83;8.90;;;;;;;;;;5067212;28;20059;-66
2021/05/15 06:50:50;;;;;;;34.47;9.03;;;;;;;;;;5065643;28;20447;-66
2021/05/15 06:53:15;;;;;;;28.27;10.57;;;;;;;;;;5067204;28;20036;-66
2021/05/15 06:55:40;;;;;;;26.70;8.87;;;;;;;;;;5066200;28;20040;-66
2021/05/15 06:58:05;;;;;;;27.63;9.63;;;;;;;;;;5065711;28;20044;-66
2021/05/15 07:00:31;;;;;;;33.60;9.97;;;;;;;;;;5068438;28;20043;-67
2021/05/15 07:02:56;;;;;;;30.50;10.27;;;;;;;;;;5049402;28;20442;-67
2021/05/15 07:05:22;;;;;;;28.63;9.63;;;;;;;;;;5067870;28;20032;-67
2021/05/15 07:07:47;;;;;;;31.70;9.87;;;;;;;;;;5067757;28;20453;-67
2021/05/15 07:10:12;;;;;;;30.30;9.53;;;;;;;;;;5068346;28;20036;-66
2021/05/15 07:12:37;;;;;;;33.07;10.63;;;;;;;;;;5067461;28;20107;-66
2021/05/15 07:15:04;;;;;;;31.20;10.93;;;;;;;;;;5066339;28;20024;-66
2021/05/15 07:17:29;;;;;;;30.67;10.67;;;;;;;;;;5072474;28;20542;-67
2021/05/15 07:19:54;;;;;;;32.33;10.60;;;;;;;;;;5070898;28;20032;-67
2021/05/15 07:22:24;;;;;;;32.93;10.83;;;;;;;;;;5072344;28;20078;-66
2021/05/15 07:24:50;;;;;;;31.87;9.90;;;;;;;;;;5070736;28;20024;-66
2021/05/15 07:27:16;;;;;;;31.53;11.50;;;;;;;;;;5068924;28;20033;-67
2021/05/15 07:29:41;;;;;;;34.23;10.40;;;;;;;;;;5070350;28;20020;-66
2021/05/15 07:32:07;;;;;;;33.03;11.87;;;;;;;;;;5069998;28;20024;-67
2021/05/15 07:34:32;;;;;;;37.87;11.50;;;;;;;;;;5070228;28;20036;-66
2021/05/15 07:36:57;;;;;;;28.23;10.87;;;;;;;;;;5041322;28;20033;-67
2021/05/15 07:39:23;;;;;;;33.93;10.60;;;;;;;;;;5071939;28;20029;-66
2021/05/15 07:41:48;;;;;;;33.17;12.27;;;;;;;;;;5070901;28;20040;-66
2021/05/15 07:44:13;;;;;;;32.50;10.70;;;;;;;;;;5068255;28;20028;-67
2021/05/15 07:46:38;;;;;;;30.70;10.43;;;;;;;;;;5066837;28;20400;-66
2021/05/15 07:49:04;;;;;;;26.37;11.20;;;;;;;;;;5070959;28;20136;-67
2021/05/15 07:51:29;;;;;;;28.37;11.53;;;;;;;;;;5063551;28;20037;-67
2021/05/15 07:53:56;;;;;;;28.97;10.60;;;;;;;;;;5069584;28;20029;-66
2021/05/15 07:56:21;;;;;;;27.30;11.13;;;;;;;;;;5068110;28;20401;-66
2021/05/15 07:58:47;;;;;;;28.70;10.70;;;;;;;;;;5071770;28;20028;-67
2021/05/15 08:01:12;;;;;;;27.80;10.47;;;;;;;;;;5068252;28;20093;-66
2021/05/15 08:03:37;;;;;;;28.73;10.77;;;;;;;;;;5069851;28;20127;-67
2021/05/15 08:06:03;;;;;;;27.33;10.53;;;;;;;;;;5069567;28;20040;-67
2021/05/15 08:08:28;;;;;;;27.57;10.20;;;;;;;;;;5070379;28;20070;-67
2021/05/15 08:10:54;;;;;;;24.17;9.40;;;;;;;;;;5069764;28;20123;-67
2021/05/15 08:13:20;;;;;;;22.07;10.13;;;;;;;;;;5070113;28;20036;-67
2021/05/15 08:15:45;;;;;;;24.20;9.03;;;;;;;;;;5069864;28;20048;-67
2021/05/15 08:18:11;;;;;;;24.13;9.90;;;;;;;;;;5067461;28;20028;-67
2021/05/15 08:20:36;;;;;;;25.17;10.70;;;;;;;;;;5066409;28;20115;-65
2021/05/15 08:23:02;;;;;;;21.63;9.70;;;;;;;;;;5070715;28;20392;-65
2021/05/15 08:25:27;;;;;;;22.00;10.23;;;;;;;;;;5070415;28;20536;-65
2021/05/15 08:27:56;;;;;;;20.60;9.47;;;;;;;;;;5070977;28;20043;-66
2021/05/15 08:30:22;;;;;;;20.03;9.60;;;;;;;;;;5069827;28;20464;-66
2021/05/15 08:32:49;;;;;;;19.03;9.43;;;;;;;;;;5070641;28;20040;-66
2021/05/15 08:35:15;;;;;;;19.90;9.77;;;;;;;;;;5067675;28;20028;-66
2021/05/15 08:37:40;;;;;;;22.57;10.30;;;;;;;;;;5070804;28;20031;-66
2021/05/15 08:40:07;;;;;;;20.80;9.30;;;;;;;;;;5069945;28;20040;-65
2021/05/15 08:42:35;;;;;;;19.20;9.20;;;;;;;;;;5070343;28;20186;-66
2021/05/15 08:45:01;;;;;;;21.57;9.90;;;;;;;;;;5069015;28;20119;-66
2021/05/15 08:47:27;;;;;;;21.53;9.80;;;;;;;;;;5070767;28;20166;-66
2021/05/15 08:49:53;;;;;;;18.70;9.70;;;;;;;;;;5068717;28;20036;-65
2021/05/15 08:52:19;;;;;;;19.53;9.63;;;;;;;;;;5070371;28;20028;-66
2021/05/15 08:54:45;;;;;;;17.30;8.80;;;;;;;;;;5069718;28;20115;-65
2021/05/15 08:57:10;;;;;;;17.07;8.53;;;;;;;;;;5069412;28;20536;-65
2021/05/15 08:59:36;;;;;;;18.90;8.93;;;;;;;;;;5069631;28;20038;-65
2021/05/15 09:02:01;;;;;;;16.77;8.53;;;;;;;;;;5068735;28;20090;-65
2021/05/15 09:04:26;;;;;;;17.97;8.70;;;;;;;;;;5068855;28;20087;-65
2021/05/15 09:06:51;;;;;;;17.07;8.30;;;;;;;;;;5067832;28;20495;-65
2021/05/15 09:09:17;;;;;;;17.63;8.93;;;;;;;;;;5068101;28;20485;-65
2021/05/15 09:11:42;;;;;;;16.93;8.50;;;;;;;;;;5065355;28;20035;-65
2021/05/15 09:14:15;;;;;;;17.10;9.03;;;;;;;;;;5056389;28;20067;-65
2021/05/15 09:16:47;;;;;;;17.63;8.57;;;;;;;;;;5067668;28;21755;-65
2021/05/15 09:19:17;;;;;;;16.90;9.10;;;;;;;;;;5065985;28;20117;-66
2021/05/15 09:21:42;;;;;;;16.43;8.53;;;;;;;;;;5068445;28;20134;-66
2021/05/15 09:24:11;;;;;;;16.17;8.87;;;;;;;;;;5068945;28;20103;-66
2021/05/15 09:26:36;;;;;;;16.53;8.27;;;;;;;;;;5067722;28;20036;-65
2021/05/15 09:29:01;;;;;;;18.57;8.67;;;;;;;;;;5065999;28;20020;-66
2021/05/15 09:31:28;;;;;;;19.30;9.47;;;;;;;;;;5068850;28;20039;-66
2021/05/15 09:33:56;;;;;;;18.27;9.30;;;;;;;;;;5067945;28;20377;-66
2021/05/15 09:36:25;;;;;;;16.60;9.07;;;;;;;;;;5069051;28;20035;-66
2021/05/15 09:39:03;;;;;;;15.63;8.37;;;;;;;;;;5062742;28;20465;-67
2021/05/15 09:41:31;;;;;;;16.87;8.40;;;;;;;;;;5068334;28;20039;-66
2021/05/15 09:43:57;;;;;;;17.37;8.50;;;;;;;;;;5070323;28;20453;-67
2021/05/15 09:46:28;;;;;;;17.70;9.43;;;;;;;;;;5062616;28;20025;-67
2021/05/15 09:48:54;;;;;;;15.27;8.13;;;;;;;;;;5055168;28;20490;-68
2021/05/15 09:51:20;;;;;;;16.25;8.63;;;;;;;;;;5064969;28;20028;-68
2021/05/15 09:53:45;;;;;;;16.58;9.02;;;;;;;;;;5045076;28;20563;-68
2021/05/15 09:56:11;;;;;;;19.77;10.23;;;;;;;;;;5066206;28;20499;-68
2021/05/15 09:58:36;;;;;;;16.67;9.65;;;;;;;;;;5059601;28;20028;-68
2021/05/15 10:01:02;;;;;;;17.83;10.27;;;;;;;;;;5058487;28;20024;-68
2021/05/15 10:03:28;;;;;;;18.77;9.80;;;;;;;;;;5067377;28;20186;-69
2021/05/15 10:06:00;;;;;;;19.80;11.55;;;;;;;;;;5058874;28;20376;-70
2021/05/15 10:08:26;;;;;;;19.58;11.05;;;;;;;;;;5069197;28;20031;-69
2021/05/15 10:10:52;;;;;;;19.33;11.35;;;;;;;;;;5065528;28;20021;-68
2021/05/15 10:13:18;;;;;;;17.38;10.77;;;;;;;;;;5069579;28;20104;-68
2021/05/15 10:15:44;;;;;;;17.58;10.10;;;;;;;;;;5062209;28;20035;-70
2021/05/15 10:18:10;;;;;;;17.02;10.63;;;;;;;;;;5068978;28;20024;-70
2021/05/15 10:20:35;;;;;;;17.60;11.25;;;;;;;;;;5068962;28;20035;-68
2021/05/15 10:23:01;;;;;;;17.98;11.13;;;;;;;;;;5069254;28;20064;-67
2021/05/15 10:25:28;;;;;;;19.88;12.23;;;;;;;;;;5064041;28;20024;-66
2021/05/15 10:28:01;;;;;;;20.25;12.93;;;;;;;;;;5069276;28;20024;-66
2021/05/15 10:30:26;;;;;;;18.67;11.80;;;;;;;;;;5068144;28;20031;-66
2021/05/15 10:32:53;;;;;;;20.08;11.95;;;;;;;;;;5055472;28;20427;-66
2021/05/15 10:35:26;;;;;;;20.20;12.38;;;;;;;;;;5063079;28;20063;-67
2021/05/15 10:37:59;;;;;;;21.30;13.05;;;;;;;;;;5067019;28;20029;-67
2021/05/15 10:40:27;;;;;;;22.33;12.53;;;;;;;;;;5060577;28;20029;-67
2021/05/15 10:43:00;;;;;;;23.53;13.07;;;;;;;;;;5063829;28;20024;-67
2021/05/15 10:45:39;;;;;;;20.33;12.57;;;;;;;;;;5067309;28;20431;-66
2021/05/15 10:48:11;;;;;;;20.00;12.47;;;;;;;;;;5055349;28;20044;-66
2021/05/15 10:50:47;;;;;;;18.42;11.40;;;;;;;;;;5071728;28;20545;-66
2021/05/15 10:53:17;;;;;;;19.30;11.60;;;;;;;;;;5058532;28;20029;-67
2021/05/15 10:55:42;;;;;;;18.93;10.73;;;;;;;;;;5062294;28;20029;-68
2021/05/15 10:58:11;;;;;;;16.48;10.57;;;;;;;;;;5062217;28;20097;-68
2021/05/15 11:00:37;;;;;;;18.40;11.43;;;;;;;;;;5067408;28;20034;-68
2021/05/15 11:03:02;;;;;;;15.85;10.52;;;;;;;;;;5066702;28;20041;-68
2021/05/15 11:05:30;;;;;;;15.57;10.10;;;;;;;;;;5067647;28;20055;-67
2021/05/15 11:07:56;;;;;;;18.20;10.80;;;;;;;;;;5067374;28;20020;-66
2021/05/15 11:10:21;;;;;;;16.73;10.77;;;;;;;;;;5064839;28;20082;-66
2021/05/15 11:12:49;;;;;;;17.20;11.40;;;;;;;;;;5067964;28;20039;-66
2021/05/15 11:15:15;;;;;;;18.70;11.48;;;;;;;;;;5065518;28;20112;-66
2021/05/15 11:17:41;;;;;;;17.48;10.57;;;;;;;;;;5067157;28;20086;-66
2021/05/15 11:20:19;;;;;;;18.15;11.48;;;;;;;;;;5066454;28;20037;-66
2021/05/15 11:22:48;;;;;;;19.77;11.32;;;;;;;;;;5066277;28;20039;-65
2021/05/15 11:25:14;;;;;;;17.13;10.38;;;;;;;;;;5067173;28;20028;-65
2021/05/15 11:27:45;;;;;;;15.35;9.05;;;;;;;;;;5067149;28;20366;-66
2021/05/15 11:30:14;;;;;;;14.65;9.48;;;;;;;;;;5067142;28;20032;-67
2021/05/15 11:32:40;;;;;;;19.08;8.90;;;;;;;;;;5068445;28;20036;-67
2021/05/15 11:35:07;;;;;;;12.05;8.40;;;;;;;;;;5065675;28;20039;-68
2021/05/15 11:37:32;;;;;;;12.88;9.23;;;;;;;;;;5066159;28;20115;-66
2021/05/15 11:39:58;;;;;;;11.45;8.00;;;;;;;;;;5068166;28;20159;-66
2021/05/15 11:42:27;;;;;;;12.45;8.63;;;;;;;;;;5067397;28;20433;-66
2021/05/15 11:44:52;;;;;;;16.52;8.63;;;;;;;;;;5066959;28;20021;-66
2021/05/15 11:47:17;;;;;;;12.27;8.32;;;;;;;;;;5066535;28;20031;-66
2021/05/15 11:49:42;;;;;;;12.15;8.48;;;;;;;;;;5066340;28;20460;-66
2021/05/15 11:52:09;;;;;;;14.77;8.75;;;;;;;;;;5066330;28;20510;-66
2021/05/15 11:54:35;;;;;;;11.60;7.88;;;;;;;;;;5067165;28;20025;-66
2021/05/15 11:57:01;;;;;;;11.23;7.60;;;;;;;;;;5067410;28;20032;-65
2021/05/15 11:59:27;;;;;;;11.32;7.97;;;;;;;;;;5071378;28;20055;-65
2021/05/15 12:01:52;;;;;;;11.27;7.32;;;;;;;;;;5069309;28;20028;-65
2021/05/15 12:04:29;;;;;;;9.60;6.90;;;;;;;;;;5070897;28;20476;-66
2021/05/15 12:06:58;;;;;;;9.45;6.78;;;;;;;;;;5047678;28;20048;-66
2021/05/15 12:09:26;;;;;;;8.50;6.00;;;;;;;;;;5070931;28;20025;-66
2021/05/15 12:12:00;;;;;;;11.85;7.38;;;;;;;;;;5070268;28;20032;-67
2021/05/15 12:14:27;;;;;;;8.98;6.32;;;;;;;;;;5066207;28;20428;-67
2021/05/15 12:16:52;;;;;;;8.32;6.03;;;;;;;;;;5070686;28;20040;-66
2021/05/15 12:19:27;;;;;;;10.18;7.38;;;;;;;;;;5070401;28;20817;-66
2021/05/15 12:21:53;;;;;;;10.55;7.03;;;;;;;;;;5070483;28;20098;-66
2021/05/15 12:24:19;;;;;;;11.45;7.32;;;;;;;;;;5070434;28;20028;-66
2021/05/15 12:26:44;;;;;;;11.95;8.05;;;;;;;;;;5070863;28;20035;-66
2021/05/15 12:29:09;;;;;;;6.30;4.10;;;;;;;;;;5070614;28;20024;-65
2021/05/15 12:31:35;;;;;;;4.77;2.80;;;;;;;;;;5069092;28;20078;-66
2021/05/15 12:34:01;;;;;;;7.93;2.93;;;;;;;;;;5069995;28;20032;-69
2021/05/15 12:36:30;;;;;;;7.60;3.37;;;;;;;;;;5068782;28;20056;-68
2021/05/15 12:38:56;;;;;;;8.60;3.97;;;;;;;;;;5068992;28;20033;-67
2021/05/15 12:41:32;;;;;;;6.33;3.17;;;;;;;;;;5062731;28;20074;-67
2021/05/15 12:44:08;;;;;;;6.50;3.63;;;;;;;;;;5053916;28;20028;-67
2021/05/15 12:46:43;;;;;;;6.60;3.67;;;;;;;;;;5051014;28;20039;-67
2021/05/15 12:49:15;;;;;;;7.77;3.43;;;;;;;;;;5069436;28;20071;-67
2021/05/15 12:51:45;;;;;;;5.80;3.13;;;;;;;;;;5069259;28;20367;-67
2021/05/15 12:54:10;;;;;;;4.83;2.13;;;;;;;;;;5070360;28;20024;-67
2021/05/15 12:56:36;;;;;;;3.80;1.93;;;;;;;;;;5058094;28;20047;-67
2021/05/15 12:59:01;;;;;;;5.60;2.83;;;;;;;;;;5070081;28;20104;-67
2021/05/15 13:01:27;;;;;;;5.33;2.60;;;;;;;;;;5070110;28;20032;-67
2021/05/15 13:03:53;;;;;;;6.40;2.37;;;;;;;;;;5068830;28;20040;-67
2021/05/15 13:06:20;;;;;;;4.73;2.43;;;;;;;;;;5068100;28;20120;-67
2021/05/15 13:08:55;;;;;;;4.97;2.40;;;;;;;;;;5067781;28;20465;-67
2021/05/15 13:11:21;;;;;;;4.13;2.10;;;;;;;;;;5069334;28;20037;-67
2021/05/15 13:13:47;;;;;;;3.10;1.70;;;;;;;;;;5069981;28;20118;-67
2021/05/15 13:16:13;;;;;;;3.97;2.10;;;;;;;;;;5062859;28;20028;-67
2021/05/15 13:18:38;;;;;;;4.27;1.60;;;;;;;;;;5068874;28;20380;-67
2021/05/15 13:21:04;;;;;;;3.63;1.60;;;;;;;;;;5066450;28;20044;-67
2021/05/15 13:23:30;;;;;;;4.33;1.90;;;;;;;;;;5059906;28;20357;-67
2021/05/15 13:25:55;;;;;;;3.70;1.67;;;;;;;;;;5069204;28;20025;-67
2021/05/15 13:28:21;;;;;;;6.83;1.93;;;;;;;;;;5068688;28;20043;-68
2021/05/15 13:30:46;;;;;;;13.40;2.10;;;;;;;;;;5069402;28;20025;-68
2021/05/15 13:33:12;;;;;;;6.13;2.70;;;;;;;;;;5068755;28;20099;-67
2021/05/15 13:35:37;;;;;;;3.93;2.00;;;;;;;;;;5069513;28;20033;-67
2021/05/15 13:38:03;;;;;;;4.47;2.10;;;;;;;;;;5067134;28;20042;-67
2021/05/15 13:40:28;;;;;;;4.00;2.13;;;;;;;;;;5068285;28;20039;-67
2021/05/15 13:42:53;;;;;;;4.50;2.17;;;;;;;;;;5068920;28;20029;-67
2021/05/15 13:45:19;;;;;;;4.43;2.10;;;;;;;;;;5067996;28;20039;-67
2021/05/15 13:47:50;;;;;;;4.53;2.47;;;;;;;;;;5069152;28;20032;-67
2021/05/15 13:50:15;;;;;;;3.23;1.53;;;;;;;;;;5068064;28;20108;-67
2021/05/15 13:52:41;;;;;;;5.13;2.23;;;;;;;;;;5068852;28;20532;-66
2021/05/15 13:55:06;;;;;;;4.43;1.83;;;;;;;;;;5062778;28;20108;-66
2021/05/15 13:57:31;;;;;;;3.70;1.83;;;;;;;;;;5064694;28;20773;-66
2021/05/15 13:59:57;;;;;;;4.17;1.83;;;;;;;;;;5067359;28;20044;-66
2021/05/15 14:02:22;;;;;;;5.50;2.03;;;;;;;;;;5064292;28;20060;-67
2021/05/15 14:04:47;;;;;;;4.03;2.10;;;;;;;;;;5067876;28;20419;-67
2021/05/15 14:07:12;;;;;;;3.47;1.67;;;;;;;;;;5067931;28;20047;-66
2021/05/15 14:09:38;;;;;;;3.37;1.60;;;;;;;;;;5064913;28;20036;-67
2021/05/15 14:12:04;;;;;;;4.93;2.10;;;;;;;;;;5064018;28;20067;-67
2021/05/15 14:14:29;;;;;;;5.40;2.50;;;;;;;;;;5067258;28;20119;-66
2021/05/15 14:16:54;;;;;;;4.47;2.20;;;;;;;;;;5068238;28;20464;-67
2021/05/15 14:19:20;;;;;;;4.73;2.47;;;;;;;;;;5067585;28;20082;-67
2021/05/15 14:21:45;;;;;;;4.97;2.40;;;;;;;;;;5067403;28;20479;-67
2021/05/15 14:24:10;;;;;;;6.17;2.73;;;;;;;;;;5068448;28;20036;-67
2021/05/15 14:26:35;;;;;;;4.93;2.67;;;;;;;;;;5065351;28;20435;-66